sensor_id;sensor_type;location;lat;lon;timestamp;P1;durP1;ratioP1;P2;durP2;ratioP2
72676;SDS011;60755;51.374;10.662;2024-03-22T00:01:54;11.13;;;8.33;;
72676;SDS011;60755;51.374;10.662;2024-03-22T00:04:22;11.97;;;8.37;;
72676;SDS011;60755;51.374;10.662;2024-03-22T00:06:49;10.80;;;8.00;;
72676;SDS011;60755;51.374;10.662;2024-03-22T00:09:16;12.20;;;8.23;;
72676;SDS011;60755;51.374;10.662;2024-03-22T00:11:44;10.50;;;8.37;;
72676;SDS011;60755;51.374;10.662;2024-03-22T00:14:10;14.73;;;8.00;;
72676;SDS011;60755;51.374;10.662;2024-03-22T00:16:39;13.43;;;8.90;;
72676;SDS011;60755;51.374;10.662;2024-03-22T00:19:06;15.80;;;10.17;;
72676;SDS011;60755;51.374;10.662;2024-03-22T00:21:34;17.80;;;11.07;;
72676;SDS011;60755;51.374;10.662;2024-03-22T00:24:00;16.10;;;9.50;;
72676;SDS011;60755;51.374;10.662;2024-03-22T00:26:28;14.97;;;8.87;;
72676;SDS011;60755;51.374;10.662;2024-03-22T00:28:54;14.90;;;10.10;;
72676;SDS011;60755;51.374;10.662;2024-03-22T00:31:23;22.60;;;13.73;;
72676;SDS011;60755;51.374;10.662;2024-03-22T00:33:49;17.80;;;11.30;;
72676;SDS011;60755;51.374;10.662;2024-03-22T00:36:17;19.70;;;11.73;;
72676;SDS011;60755;51.374;10.662;2024-03-22T00:38:44;13.90;;;10.37;;
72676;SDS011;60755;51.374;10.662;2024-03-22T00:41:11;17.03;;;11.13;;
72676;SDS011;60755;51.374;10.662;2024-03-22T00:43:38;19.07;;;11.40;;
72676;SDS011;60755;51.374;10.662;2024-03-22T00:46:05;18.30;;;10.97;;
72676;SDS011;60755;51.374;10.662;2024-03-22T00:48:31;14.90;;;10.27;;
72676;SDS011;60755;51.374;10.662;2024-03-22T00:50:59;14.93;;;9.30;;
72676;SDS011;60755;51.374;10.662;2024-03-22T00:53:25;13.93;;;9.23;;
72676;SDS011;60755;51.374;10.662;2024-03-22T00:55:54;15.73;;;10.03;;
72676;SDS011;60755;51.374;10.662;2024-03-22T00:58:21;14.50;;;9.80;;
72676;SDS011;60755;51.374;10.662;2024-03-22T01:00:49;17.27;;;10.07;;
72676;SDS011;60755;51.374;10.662;2024-03-22T01:03:15;14.47;;;9.47;;
72676;SDS011;60755;51.374;10.662;2024-03-22T01:05:42;15.57;;;9.00;;
72676;SDS011;60755;51.374;10.662;2024-03-22T01:08:10;14.10;;;9.37;;
72676;SDS011;60755;51.374;10.662;2024-03-22T01:10:37;12.37;;;8.97;;
72676;SDS011;60755;51.374;10.662;2024-03-22T01:13:05;14.00;;;9.60;;
72676;SDS011;60755;51.374;10.662;2024-03-22T01:15:32;14.20;;;9.23;;
72676;SDS011;60755;51.374;10.662;2024-03-22T01:17:58;15.63;;;9.80;;
72676;SDS011;60755;51.374;10.662;2024-03-22T01:20:25;15.50;;;9.23;;
72676;SDS011;60755;51.374;10.662;2024-03-22T01:22:52;14.70;;;9.67;;
72676;SDS011;60755;51.374;10.662;2024-03-22T01:25:19;18.63;;;11.67;;
72676;SDS011;60755;51.374;10.662;2024-03-22T01:27:45;17.43;;;11.93;;
72676;SDS011;60755;51.374;10.662;2024-03-22T01:30:14;15.87;;;10.53;;
72676;SDS011;60755;51.374;10.662;2024-03-22T01:32:40;14.83;;;10.53;;
72676;SDS011;60755;51.374;10.662;2024-03-22T01:35:08;16.53;;;10.67;;
72676;SDS011;60755;51.374;10.662;2024-03-22T01:37:34;16.33;;;10.63;;
72676;SDS011;60755;51.374;10.662;2024-03-22T01:40:02;12.00;;;8.67;;
72676;SDS011;60755;51.374;10.662;2024-03-22T01:42:28;13.90;;;8.50;;
72676;SDS011;60755;51.374;10.662;2024-03-22T01:44:56;13.03;;;9.13;;
72676;SDS011;60755;51.374;10.662;2024-03-22T01:47:23;13.50;;;8.70;;
72676;SDS011;60755;51.374;10.662;2024-03-22T01:49:52;11.97;;;8.20;;
72676;SDS011;60755;51.374;10.662;2024-03-22T01:52:20;10.87;;;7.93;;
72676;SDS011;60755;51.374;10.662;2024-03-22T01:54:48;13.00;;;8.30;;
72676;SDS011;60755;51.374;10.662;2024-03-22T01:57:14;11.47;;;8.20;;
72676;SDS011;60755;51.374;10.662;2024-03-22T01:59:42;11.97;;;8.97;;
72676;SDS011;60755;51.374;10.662;2024-03-22T02:02:09;12.90;;;8.87;;
72676;SDS011;60755;51.374;10.662;2024-03-22T02:04:38;12.70;;;8.63;;
72676;SDS011;60755;51.374;10.662;2024-03-22T02:07:04;11.30;;;8.07;;
72676;SDS011;60755;51.374;10.662;2024-03-22T02:09:32;13.50;;;8.73;;
72676;SDS011;60755;51.374;10.662;2024-03-22T02:11:58;10.57;;;8.57;;
72676;SDS011;60755;51.374;10.662;2024-03-22T02:14:25;12.97;;;8.43;;
72676;SDS011;60755;51.374;10.662;2024-03-22T02:16:51;11.87;;;8.23;;
72676;SDS011;60755;51.374;10.662;2024-03-22T02:19:19;12.83;;;7.63;;
72676;SDS011;60755;51.374;10.662;2024-03-22T02:21:46;12.33;;;8.27;;
72676;SDS011;60755;51.374;10.662;2024-03-22T02:24:15;12.50;;;8.57;;
72676;SDS011;60755;51.374;10.662;2024-03-22T02:26:41;13.37;;;8.40;;
72676;SDS011;60755;51.374;10.662;2024-03-22T02:29:08;13.50;;;8.67;;
72676;SDS011;60755;51.374;10.662;2024-03-22T02:31:35;12.50;;;8.60;;
72676;SDS011;60755;51.374;10.662;2024-03-22T02:34:02;14.00;;;8.27;;
72676;SDS011;60755;51.374;10.662;2024-03-22T02:36:28;15.00;;;8.77;;
72676;SDS011;60755;51.374;10.662;2024-03-22T02:38:55;13.30;;;8.53;;
72676;SDS011;60755;51.374;10.662;2024-03-22T02:41:23;14.63;;;9.03;;
72676;SDS011;60755;51.374;10.662;2024-03-22T02:43:50;14.87;;;9.50;;
72676;SDS011;60755;51.374;10.662;2024-03-22T02:46:16;13.10;;;8.70;;
72676;SDS011;60755;51.374;10.662;2024-03-22T02:48:43;13.03;;;8.83;;
72676;SDS011;60755;51.374;10.662;2024-03-22T02:51:09;14.37;;;8.83;;
72676;SDS011;60755;51.374;10.662;2024-03-22T02:53:37;12.50;;;8.60;;
72676;SDS011;60755;51.374;10.662;2024-03-22T02:56:03;12.03;;;8.57;;
72676;SDS011;60755;51.374;10.662;2024-03-22T02:58:32;13.13;;;8.50;;
72676;SDS011;60755;51.374;10.662;2024-03-22T03:01:00;16.03;;;9.03;;
72676;SDS011;60755;51.374;10.662;2024-03-22T03:03:28;12.63;;;9.43;;
72676;SDS011;60755;51.374;10.662;2024-03-22T03:05:54;14.07;;;8.57;;
72676;SDS011;60755;51.374;10.662;2024-03-22T03:08:21;12.27;;;8.80;;
72676;SDS011;60755;51.374;10.662;2024-03-22T03:10:48;13.27;;;8.90;;
72676;SDS011;60755;51.374;10.662;2024-03-22T03:13:15;14.30;;;9.23;;
72676;SDS011;60755;51.374;10.662;2024-03-22T03:15:43;18.37;;;9.97;;
72676;SDS011;60755;51.374;10.662;2024-03-22T03:18:10;16.47;;;10.73;;
72676;SDS011;60755;51.374;10.662;2024-03-22T03:20:36;17.23;;;10.67;;
72676;SDS011;60755;51.374;10.662;2024-03-22T03:23:04;17.67;;;10.57;;
72676;SDS011;60755;51.374;10.662;2024-03-22T03:25:30;20.73;;;11.67;;
72676;SDS011;60755;51.374;10.662;2024-03-22T03:27:57;17.10;;;10.70;;
72676;SDS011;60755;51.374;10.662;2024-03-22T03:30:23;18.80;;;11.30;;
72676;SDS011;60755;51.374;10.662;2024-03-22T03:32:53;17.43;;;10.40;;
72676;SDS011;60755;51.374;10.662;2024-03-22T03:35:19;20.87;;;11.27;;
72676;SDS011;60755;51.374;10.662;2024-03-22T03:37:46;18.07;;;11.23;;
72676;SDS011;60755;51.374;10.662;2024-03-22T03:40:12;18.77;;;11.97;;
72676;SDS011;60755;51.374;10.662;2024-03-22T03:42:40;20.97;;;11.77;;
72676;SDS011;60755;51.374;10.662;2024-03-22T03:45:06;22.87;;;12.77;;
72676;SDS011;60755;51.374;10.662;2024-03-22T03:47:34;22.93;;;12.13;;
72676;SDS011;60755;51.374;10.662;2024-03-22T03:50:01;21.83;;;13.20;;
72676;SDS011;60755;51.374;10.662;2024-03-22T03:52:29;23.17;;;12.83;;
72676;SDS011;60755;51.374;10.662;2024-03-22T03:54:55;21.30;;;12.10;;
72676;SDS011;60755;51.374;10.662;2024-03-22T03:57:22;22.00;;;13.23;;
72676;SDS011;60755;51.374;10.662;2024-03-22T03:59:48;24.73;;;13.10;;
72676;SDS011;60755;51.374;10.662;2024-03-22T04:02:15;25.57;;;13.13;;
72676;SDS011;60755;51.374;10.662;2024-03-22T04:04:42;23.30;;;13.60;;
72676;SDS011;60755;51.374;10.662;2024-03-22T04:07:10;24.50;;;13.87;;
72676;SDS011;60755;51.374;10.662;2024-03-22T04:09:37;23.27;;;13.03;;
72676;SDS011;60755;51.374;10.662;2024-03-22T04:12:04;25.03;;;13.73;;
72676;SDS011;60755;51.374;10.662;2024-03-22T04:14:31;26.27;;;13.77;;
72676;SDS011;60755;51.374;10.662;2024-03-22T04:16:58;27.37;;;14.73;;
72676;SDS011;60755;51.374;10.662;2024-03-22T04:19:24;28.30;;;15.20;;
72676;SDS011;60755;51.374;10.662;2024-03-22T04:21:52;26.13;;;13.93;;
72676;SDS011;60755;51.374;10.662;2024-03-22T04:24:19;25.47;;;14.63;;
72676;SDS011;60755;51.374;10.662;2024-03-22T04:26:46;29.67;;;14.97;;
72676;SDS011;60755;51.374;10.662;2024-03-22T04:29:13;29.43;;;14.47;;
72676;SDS011;60755;51.374;10.662;2024-03-22T04:31:40;33.37;;;16.60;;
72676;SDS011;60755;51.374;10.662;2024-03-22T04:34:06;29.30;;;16.37;;
72676;SDS011;60755;51.374;10.662;2024-03-22T04:36:33;29.50;;;15.70;;
72676;SDS011;60755;51.374;10.662;2024-03-22T04:39:00;29.50;;;15.97;;
72676;SDS011;60755;51.374;10.662;2024-03-22T04:41:28;32.60;;;16.80;;
72676;SDS011;60755;51.374;10.662;2024-03-22T04:43:55;30.47;;;16.60;;
72676;SDS011;60755;51.374;10.662;2024-03-22T04:46:23;34.63;;;17.73;;
72676;SDS011;60755;51.374;10.662;2024-03-22T04:48:49;35.50;;;17.50;;
72676;SDS011;60755;51.374;10.662;2024-03-22T04:51:16;32.33;;;17.67;;
72676;SDS011;60755;51.374;10.662;2024-03-22T04:53:42;30.97;;;17.20;;
72676;SDS011;60755;51.374;10.662;2024-03-22T04:56:09;32.40;;;17.37;;
72676;SDS011;60755;51.374;10.662;2024-03-22T04:58:37;31.47;;;17.50;;
72676;SDS011;60755;51.374;10.662;2024-03-22T05:01:04;33.93;;;17.37;;
72676;SDS011;60755;51.374;10.662;2024-03-22T05:03:31;33.90;;;18.63;;
72676;SDS011;60755;51.374;10.662;2024-03-22T05:05:58;37.50;;;18.20;;
72676;SDS011;60755;51.374;10.662;2024-03-22T05:08:24;36.40;;;17.63;;
72676;SDS011;60755;51.374;10.662;2024-03-22T05:10:52;37.20;;;18.80;;
72676;SDS011;60755;51.374;10.662;2024-03-22T05:13:18;39.23;;;19.13;;
72676;SDS011;60755;51.374;10.662;2024-03-22T05:15:47;34.50;;;18.10;;
72676;SDS011;60755;51.374;10.662;2024-03-22T05:18:14;38.20;;;18.20;;
72676;SDS011;60755;51.374;10.662;2024-03-22T05:20:41;34.00;;;17.57;;
72676;SDS011;60755;51.374;10.662;2024-03-22T05:23:07;37.37;;;19.00;;
72676;SDS011;60755;51.374;10.662;2024-03-22T05:25:34;37.10;;;19.20;;
72676;SDS011;60755;51.374;10.662;2024-03-22T05:28:00;35.83;;;18.53;;
72676;SDS011;60755;51.374;10.662;2024-03-22T05:30:28;36.43;;;19.80;;
72676;SDS011;60755;51.374;10.662;2024-03-22T05:32:55;36.03;;;18.67;;
72676;SDS011;60755;51.374;10.662;2024-03-22T05:35:23;37.17;;;19.03;;
72676;SDS011;60755;51.374;10.662;2024-03-22T05:37:49;32.90;;;17.57;;
72676;SDS011;60755;51.374;10.662;2024-03-22T05:40:16;36.20;;;18.10;;
72676;SDS011;60755;51.374;10.662;2024-03-22T05:42:42;34.33;;;18.80;;
72676;SDS011;60755;51.374;10.662;2024-03-22T05:45:10;41.50;;;19.17;;
72676;SDS011;60755;51.374;10.662;2024-03-22T05:47:36;37.73;;;18.77;;
72676;SDS011;60755;51.374;10.662;2024-03-22T05:50:06;36.87;;;17.70;;
72676;SDS011;60755;51.374;10.662;2024-03-22T05:52:34;33.87;;;17.50;;
72676;SDS011;60755;51.374;10.662;2024-03-22T05:55:01;35.70;;;18.30;;
72676;SDS011;60755;51.374;10.662;2024-03-22T05:57:28;35.43;;;18.33;;
72676;SDS011;60755;51.374;10.662;2024-03-22T05:59:55;31.80;;;16.93;;
72676;SDS011;60755;51.374;10.662;2024-03-22T06:02:21;34.87;;;17.70;;
72676;SDS011;60755;51.374;10.662;2024-03-22T06:04:49;33.40;;;16.83;;
72676;SDS011;60755;51.374;10.662;2024-03-22T06:07:16;30.83;;;16.37;;
72676;SDS011;60755;51.374;10.662;2024-03-22T06:09:43;36.83;;;18.43;;
72676;SDS011;60755;51.374;10.662;2024-03-22T06:12:11;34.00;;;18.27;;
72676;SDS011;60755;51.374;10.662;2024-03-22T06:14:39;39.33;;;19.17;;
72676;SDS011;60755;51.374;10.662;2024-03-22T06:17:06;37.83;;;19.03;;
72676;SDS011;60755;51.374;10.662;2024-03-22T06:19:33;35.33;;;17.63;;
72676;SDS011;60755;51.374;10.662;2024-03-22T06:22:00;35.23;;;16.93;;
72676;SDS011;60755;51.374;10.662;2024-03-22T06:24:29;34.73;;;17.67;;
72676;SDS011;60755;51.374;10.662;2024-03-22T06:26:55;35.13;;;18.37;;
72676;SDS011;60755;51.374;10.662;2024-03-22T06:29:23;36.83;;;18.40;;
72676;SDS011;60755;51.374;10.662;2024-03-22T06:31:49;36.17;;;18.63;;
72676;SDS011;60755;51.374;10.662;2024-03-22T06:34:18;33.30;;;18.07;;
72676;SDS011;60755;51.374;10.662;2024-03-22T06:36:44;36.30;;;18.20;;
72676;SDS011;60755;51.374;10.662;2024-03-22T06:39:12;31.70;;;17.27;;
72676;SDS011;60755;51.374;10.662;2024-03-22T06:41:41;31.13;;;17.00;;
72676;SDS011;60755;51.374;10.662;2024-03-22T06:44:08;32.57;;;16.77;;
72676;SDS011;60755;51.374;10.662;2024-03-22T06:46:37;29.30;;;16.27;;
72676;SDS011;60755;51.374;10.662;2024-03-22T06:49:04;34.83;;;17.73;;
72676;SDS011;60755;51.374;10.662;2024-03-22T06:51:31;32.30;;;16.80;;
72676;SDS011;60755;51.374;10.662;2024-03-22T06:53:58;31.40;;;17.43;;
72676;SDS011;60755;51.374;10.662;2024-03-22T06:56:24;30.80;;;16.53;;
72676;SDS011;60755;51.374;10.662;2024-03-22T06:58:53;30.23;;;16.93;;
72676;SDS011;60755;51.374;10.662;2024-03-22T07:01:20;30.30;;;16.43;;
72676;SDS011;60755;51.374;10.662;2024-03-22T07:03:46;35.50;;;17.37;;
72676;SDS011;60755;51.374;10.662;2024-03-22T07:06:13;33.10;;;17.03;;
72676;SDS011;60755;51.374;10.662;2024-03-22T07:08:40;30.10;;;16.77;;
72676;SDS011;60755;51.374;10.662;2024-03-22T07:11:07;32.40;;;17.57;;
72676;SDS011;60755;51.374;10.662;2024-03-22T07:13:34;29.40;;;16.53;;
72676;SDS011;60755;51.374;10.662;2024-03-22T07:16:03;30.03;;;16.37;;
72676;SDS011;60755;51.374;10.662;2024-03-22T07:18:29;31.90;;;15.97;;
72676;SDS011;60755;51.374;10.662;2024-03-22T07:20:56;31.30;;;16.97;;
72676;SDS011;60755;51.374;10.662;2024-03-22T07:23:23;28.40;;;16.40;;
72676;SDS011;60755;51.374;10.662;2024-03-22T07:25:51;32.53;;;16.17;;
72676;SDS011;60755;51.374;10.662;2024-03-22T07:28:17;28.43;;;16.13;;
72676;SDS011;60755;51.374;10.662;2024-03-22T07:30:44;29.43;;;16.47;;
72676;SDS011;60755;51.374;10.662;2024-03-22T07:33:12;27.50;;;16.23;;
72676;SDS011;60755;51.374;10.662;2024-03-22T07:35:42;31.30;;;16.80;;
72676;SDS011;60755;51.374;10.662;2024-03-22T07:38:08;26.87;;;15.30;;
72676;SDS011;60755;51.374;10.662;2024-03-22T07:40:35;30.97;;;17.27;;
72676;SDS011;60755;51.374;10.662;2024-03-22T07:43:02;28.37;;;15.80;;
72676;SDS011;60755;51.374;10.662;2024-03-22T07:45:31;30.67;;;15.77;;
72676;SDS011;60755;51.374;10.662;2024-03-22T07:47:58;27.10;;;15.83;;
72676;SDS011;60755;51.374;10.662;2024-03-22T07:50:26;28.40;;;15.60;;
72676;SDS011;60755;51.374;10.662;2024-03-22T07:52:53;26.70;;;14.73;;
72676;SDS011;60755;51.374;10.662;2024-03-22T07:55:21;25.57;;;14.83;;
72676;SDS011;60755;51.374;10.662;2024-03-22T07:57:47;26.07;;;15.20;;
72676;SDS011;60755;51.374;10.662;2024-03-22T08:00:15;25.93;;;14.73;;
72676;SDS011;60755;51.374;10.662;2024-03-22T08:02:42;26.80;;;15.00;;
72676;SDS011;60755;51.374;10.662;2024-03-22T08:05:09;25.23;;;14.07;;
72676;SDS011;60755;51.374;10.662;2024-03-22T08:07:36;27.43;;;15.40;;
72676;SDS011;60755;51.374;10.662;2024-03-22T08:10:04;25.30;;;13.93;;
72676;SDS011;60755;51.374;10.662;2024-03-22T08:12:31;23.33;;;13.87;;
72676;SDS011;60755;51.374;10.662;2024-03-22T08:14:58;24.23;;;14.03;;
72676;SDS011;60755;51.374;10.662;2024-03-22T08:17:24;24.63;;;14.30;;
72676;SDS011;60755;51.374;10.662;2024-03-22T08:19:52;25.53;;;14.20;;
72676;SDS011;60755;51.374;10.662;2024-03-22T08:22:18;22.90;;;13.63;;
72676;SDS011;60755;51.374;10.662;2024-03-22T08:24:47;21.20;;;12.43;;
72676;SDS011;60755;51.374;10.662;2024-03-22T08:27:13;20.17;;;11.90;;
72676;SDS011;60755;51.374;10.662;2024-03-22T08:29:41;21.97;;;12.40;;
72676;SDS011;60755;51.374;10.662;2024-03-22T08:32:07;21.73;;;12.10;;
72676;SDS011;60755;51.374;10.662;2024-03-22T08:34:34;21.50;;;12.03;;
72676;SDS011;60755;51.374;10.662;2024-03-22T08:37:01;21.20;;;12.17;;
72676;SDS011;60755;51.374;10.662;2024-03-22T08:39:29;18.70;;;11.87;;
72676;SDS011;60755;51.374;10.662;2024-03-22T08:41:57;20.37;;;12.50;;
72676;SDS011;60755;51.374;10.662;2024-03-22T08:44:24;21.43;;;11.90;;
72676;SDS011;60755;51.374;10.662;2024-03-22T08:46:50;19.43;;;12.07;;
72676;SDS011;60755;51.374;10.662;2024-03-22T08:49:17;21.10;;;12.30;;
72676;SDS011;60755;51.374;10.662;2024-03-22T08:51:45;18.67;;;11.73;;
72676;SDS011;60755;51.374;10.662;2024-03-22T08:54:13;18.83;;;11.07;;
72676;SDS011;60755;51.374;10.662;2024-03-22T08:56:40;18.00;;;11.57;;
72676;SDS011;60755;51.374;10.662;2024-03-22T08:59:09;19.07;;;11.97;;
72676;SDS011;60755;51.374;10.662;2024-03-22T09:01:35;19.17;;;11.83;;
72676;SDS011;60755;51.374;10.662;2024-03-22T09:04:03;18.40;;;11.40;;
72676;SDS011;60755;51.374;10.662;2024-03-22T09:06:30;14.77;;;10.20;;
72676;SDS011;60755;51.374;10.662;2024-03-22T09:08:57;17.07;;;10.67;;
72676;SDS011;60755;51.374;10.662;2024-03-22T09:11:24;17.40;;;11.35;;
72676;SDS011;60755;51.374;10.662;2024-03-22T09:13:51;18.07;;;11.30;;
72676;SDS011;60755;51.374;10.662;2024-03-22T09:16:19;16.77;;;10.53;;
72676;SDS011;60755;51.374;10.662;2024-03-22T09:18:46;18.83;;;11.50;;
72676;SDS011;60755;51.374;10.662;2024-03-22T09:21:13;16.90;;;11.25;;
72676;SDS011;60755;51.374;10.662;2024-03-22T09:23:40;18.33;;;11.00;;
72676;SDS011;60755;51.374;10.662;2024-03-22T09:26:06;17.17;;;10.80;;
72676;SDS011;60755;51.374;10.662;2024-03-22T09:28:34;14.88;;;11.05;;
72676;SDS011;60755;51.374;10.662;2024-03-22T09:31:03;25.20;;;15.98;;
72676;SDS011;60755;51.374;10.662;2024-03-22T09:33:33;16.95;;;11.20;;
72676;SDS011;60755;51.374;10.662;2024-03-22T09:35:59;27.23;;;16.50;;
72676;SDS011;60755;51.374;10.662;2024-03-22T09:38:26;22.80;;;13.68;;
72676;SDS011;60755;51.374;10.662;2024-03-22T09:40:52;15.82;;;10.45;;
72676;SDS011;60755;51.374;10.662;2024-03-22T09:43:20;16.50;;;11.45;;
72676;SDS011;60755;51.374;10.662;2024-03-22T09:45:47;16.65;;;11.45;;
72676;SDS011;60755;51.374;10.662;2024-03-22T09:48:16;17.52;;;11.25;;
72676;SDS011;60755;51.374;10.662;2024-03-22T09:50:45;16.65;;;11.70;;
72676;SDS011;60755;51.374;10.662;2024-03-22T09:53:13;15.73;;;11.35;;
72676;SDS011;60755;51.374;10.662;2024-03-22T09:55:44;16.40;;;11.52;;
72676;SDS011;60755;51.374;10.662;2024-03-22T09:58:11;17.20;;;11.43;;
72676;SDS011;60755;51.374;10.662;2024-03-22T10:00:40;14.93;;;11.10;;
72676;SDS011;60755;51.374;10.662;2024-03-22T10:03:07;16.45;;;11.02;;
72676;SDS011;60755;51.374;10.662;2024-03-22T10:05:35;20.87;;;11.87;;
72676;SDS011;60755;51.374;10.662;2024-03-22T10:08:04;17.10;;;11.32;;
72676;SDS011;60755;51.374;10.662;2024-03-22T10:10:31;17.73;;;11.93;;
72676;SDS011;60755;51.374;10.662;2024-03-22T10:13:00;17.30;;;11.50;;
72676;SDS011;60755;51.374;10.662;2024-03-22T10:15:26;17.98;;;11.43;;
72676;SDS011;60755;51.374;10.662;2024-03-22T10:17:56;17.58;;;11.52;;
72676;SDS011;60755;51.374;10.662;2024-03-22T10:20:23;20.67;;;12.18;;
72676;SDS011;60755;51.374;10.662;2024-03-22T10:22:54;18.73;;;10.95;;
72676;SDS011;60755;51.374;10.662;2024-03-22T10:25:25;17.15;;;11.50;;
72676;SDS011;60755;51.374;10.662;2024-03-22T10:27:53;21.27;;;12.15;;
72676;SDS011;60755;51.374;10.662;2024-03-22T10:30:21;20.85;;;11.85;;
72676;SDS011;60755;51.374;10.662;2024-03-22T10:32:50;19.00;;;12.15;;
72676;SDS011;60755;51.374;10.662;2024-03-22T10:35:17;14.95;;;11.32;;
72676;SDS011;60755;51.374;10.662;2024-03-22T10:37:44;21.67;;;12.65;;
72676;SDS011;60755;51.374;10.662;2024-03-22T10:40:11;18.45;;;12.07;;
72676;SDS011;60755;51.374;10.662;2024-03-22T10:42:41;17.52;;;11.98;;
72676;SDS011;60755;51.374;10.662;2024-03-22T10:45:09;16.83;;;11.40;;
72676;SDS011;60755;51.374;10.662;2024-03-22T10:47:37;19.88;;;12.18;;
72676;SDS011;60755;51.374;10.662;2024-03-22T10:50:04;19.63;;;12.10;;
72676;SDS011;60755;51.374;10.662;2024-03-22T10:52:33;18.27;;;12.05;;
72676;SDS011;60755;51.374;10.662;2024-03-22T10:55:06;17.73;;;11.60;;
72676;SDS011;60755;51.374;10.662;2024-03-22T10:57:37;21.02;;;12.32;;
72676;SDS011;60755;51.374;10.662;2024-03-22T11:00:07;17.50;;;11.85;;
72676;SDS011;60755;51.374;10.662;2024-03-22T11:02:36;16.73;;;11.30;;
72676;SDS011;60755;51.374;10.662;2024-03-22T11:05:03;18.38;;;11.85;;
72676;SDS011;60755;51.374;10.662;2024-03-22T11:07:31;13.50;;;10.35;;
72676;SDS011;60755;51.374;10.662;2024-03-22T11:09:57;15.57;;;10.90;;
72676;SDS011;60755;51.374;10.662;2024-03-22T11:12:29;18.30;;;11.55;;
72676;SDS011;60755;51.374;10.662;2024-03-22T11:14:59;16.25;;;10.98;;
72676;SDS011;60755;51.374;10.662;2024-03-22T11:17:27;14.18;;;10.77;;
72676;SDS011;60755;51.374;10.662;2024-03-22T11:19:57;16.20;;;11.38;;
72676;SDS011;60755;51.374;10.662;2024-03-22T11:22:25;17.35;;;11.35;;
72676;SDS011;60755;51.374;10.662;2024-03-22T11:24:51;17.33;;;11.50;;
72676;SDS011;60755;51.374;10.662;2024-03-22T11:27:19;16.42;;;11.57;;
72676;SDS011;60755;51.374;10.662;2024-03-22T11:29:45;15.50;;;11.30;;
72676;SDS011;60755;51.374;10.662;2024-03-22T11:32:14;17.05;;;11.00;;
72676;SDS011;60755;51.374;10.662;2024-03-22T11:34:42;14.85;;;10.98;;
72676;SDS011;60755;51.374;10.662;2024-03-22T11:37:12;17.85;;;11.18;;
72676;SDS011;60755;51.374;10.662;2024-03-22T11:39:39;16.42;;;11.02;;
72676;SDS011;60755;51.374;10.662;2024-03-22T11:42:06;14.23;;;10.98;;
72676;SDS011;60755;51.374;10.662;2024-03-22T11:44:35;13.38;;;10.57;;
72676;SDS011;60755;51.374;10.662;2024-03-22T11:47:04;15.68;;;11.07;;
72676;SDS011;60755;51.374;10.662;2024-03-22T11:49:30;15.27;;;10.55;;
72676;SDS011;60755;51.374;10.662;2024-03-22T11:52:00;14.38;;;11.13;;
72676;SDS011;60755;51.374;10.662;2024-03-22T11:54:26;13.32;;;10.10;;
72676;SDS011;60755;51.374;10.662;2024-03-22T11:56:55;16.33;;;10.77;;
72676;SDS011;60755;51.374;10.662;2024-03-22T11:59:22;16.33;;;10.00;;
72676;SDS011;60755;51.374;10.662;2024-03-22T12:01:49;12.80;;;9.93;;
72676;SDS011;60755;51.374;10.662;2024-03-22T12:04:16;12.70;;;9.80;;
72676;SDS011;60755;51.374;10.662;2024-03-22T12:06:43;14.75;;;9.10;;
72676;SDS011;60755;51.374;10.662;2024-03-22T12:09:11;13.43;;;9.80;;
72676;SDS011;60755;51.374;10.662;2024-03-22T12:11:39;14.90;;;10.10;;
72676;SDS011;60755;51.374;10.662;2024-03-22T12:14:06;13.60;;;9.65;;
72676;SDS011;60755;51.374;10.662;2024-03-22T12:16:33;20.10;;;11.32;;
72676;SDS011;60755;51.374;10.662;2024-03-22T12:18:59;14.30;;;10.27;;
72676;SDS011;60755;51.374;10.662;2024-03-22T12:21:27;14.65;;;9.25;;
72676;SDS011;60755;51.374;10.662;2024-03-22T12:23:53;13.13;;;9.80;;
72676;SDS011;60755;51.374;10.662;2024-03-22T12:26:21;12.82;;;9.20;;
72676;SDS011;60755;51.374;10.662;2024-03-22T12:28:48;13.30;;;9.60;;
72676;SDS011;60755;51.374;10.662;2024-03-22T12:31:16;11.77;;;9.07;;
72676;SDS011;60755;51.374;10.662;2024-03-22T12:33:43;11.23;;;8.88;;
72676;SDS011;60755;51.374;10.662;2024-03-22T12:36:11;14.00;;;8.98;;
72676;SDS011;60755;51.374;10.662;2024-03-22T12:38:37;13.93;;;10.60;;
72676;SDS011;60755;51.374;10.662;2024-03-22T12:41:04;14.23;;;9.20;;
72676;SDS011;60755;51.374;10.662;2024-03-22T12:43:33;12.45;;;9.57;;
72676;SDS011;60755;51.374;10.662;2024-03-22T12:46:00;14.20;;;9.38;;
72676;SDS011;60755;51.374;10.662;2024-03-22T12:48:26;11.05;;;9.50;;
72676;SDS011;60755;51.374;10.662;2024-03-22T12:50:54;14.63;;;8.88;;
72676;SDS011;60755;51.374;10.662;2024-03-22T12:53:20;11.20;;;8.68;;
72676;SDS011;60755;51.374;10.662;2024-03-22T12:55:47;11.70;;;8.25;;
72676;SDS011;60755;51.374;10.662;2024-03-22T12:58:13;13.65;;;9.63;;
72676;SDS011;60755;51.374;10.662;2024-03-22T13:00:42;11.82;;;8.32;;
72676;SDS011;60755;51.374;10.662;2024-03-22T13:03:08;10.38;;;8.43;;
72676;SDS011;60755;51.374;10.662;2024-03-22T13:05:37;11.75;;;8.50;;
72676;SDS011;60755;51.374;10.662;2024-03-22T13:08:03;13.48;;;9.10;;
72676;SDS011;60755;51.374;10.662;2024-03-22T13:10:30;10.82;;;8.30;;
72676;SDS011;60755;51.374;10.662;2024-03-22T13:12:57;9.60;;;7.88;;
72676;SDS011;60755;51.374;10.662;2024-03-22T13:15:24;13.45;;;8.57;;
72676;SDS011;60755;51.374;10.662;2024-03-22T13:17:52;10.52;;;8.10;;
72676;SDS011;60755;51.374;10.662;2024-03-22T13:20:21;10.95;;;7.95;;
72676;SDS011;60755;51.374;10.662;2024-03-22T13:22:48;11.45;;;8.65;;
72676;SDS011;60755;51.374;10.662;2024-03-22T13:25:15;9.23;;;7.88;;
72676;SDS011;60755;51.374;10.662;2024-03-22T13:27:41;9.63;;;7.75;;
72676;SDS011;60755;51.374;10.662;2024-03-22T13:30:09;11.32;;;8.30;;
72676;SDS011;60755;51.374;10.662;2024-03-22T13:32:36;10.63;;;8.15;;
72676;SDS011;60755;51.374;10.662;2024-03-22T13:35:07;11.52;;;8.40;;
72676;SDS011;60755;51.374;10.662;2024-03-22T13:37:33;12.10;;;8.40;;
72676;SDS011;60755;51.374;10.662;2024-03-22T13:40:00;12.95;;;8.15;;
72676;SDS011;60755;51.374;10.662;2024-03-22T13:42:27;11.82;;;8.85;;
72676;SDS011;60755;51.374;10.662;2024-03-22T13:44:55;13.02;;;8.52;;
72676;SDS011;60755;51.374;10.662;2024-03-22T13:47:22;11.70;;;8.40;;
72676;SDS011;60755;51.374;10.662;2024-03-22T13:49:49;9.70;;;8.63;;
72676;SDS011;60755;51.374;10.662;2024-03-22T13:52:17;13.38;;;8.30;;
72676;SDS011;60755;51.374;10.662;2024-03-22T13:54:46;11.63;;;8.05;;
72676;SDS011;60755;51.374;10.662;2024-03-22T13:57:12;10.50;;;8.05;;
72676;SDS011;60755;51.374;10.662;2024-03-22T13:59:40;12.30;;;8.30;;
72676;SDS011;60755;51.374;10.662;2024-03-22T14:02:06;9.52;;;7.75;;
72676;SDS011;60755;51.374;10.662;2024-03-22T14:04:34;12.40;;;8.00;;
72676;SDS011;60755;51.374;10.662;2024-03-22T14:07:00;12.57;;;8.50;;
72676;SDS011;60755;51.374;10.662;2024-03-22T14:09:31;12.48;;;7.97;;
72676;SDS011;60755;51.374;10.662;2024-03-22T14:11:58;10.25;;;7.65;;
72676;SDS011;60755;51.374;10.662;2024-03-22T14:14:25;11.10;;;8.60;;